sensor_id;sensor_type;location;lat;lon;timestamp;pressure;altitude;pressure_sealevel;temperature;humidity
72395;BME280;60384;48.152;11.614;2023-07-13T00:02:01;95634.56;;;20.35;55.70
72395;BME280;60384;48.152;11.614;2023-07-13T00:05:02;95629.13;;;20.35;55.64
72395;BME280;60384;48.152;11.614;2023-07-13T00:08:04;95622.56;;;20.36;55.73
72395;BME280;60384;48.152;11.614;2023-07-13T00:11:06;95626.03;;;20.33;55.64
72395;BME280;60384;48.152;11.614;2023-07-13T00:14:08;95615.56;;;20.32;55.69
72395;BME280;60384;48.152;11.614;2023-07-13T00:17:11;95608.53;;;20.27;55.77
72395;BME280;60384;48.152;11.614;2023-07-13T00:20:13;95616.25;;;20.25;55.76
72395;BME280;60384;48.152;11.614;2023-07-13T00:23:15;95614.28;;;20.22;55.84
72395;BME280;60384;48.152;11.614;2023-07-13T00:26:17;95617.78;;;20.22;55.84
72395;BME280;60384;48.152;11.614;2023-07-13T00:29:19;95625.56;;;20.24;55.82
72395;BME280;60384;48.152;11.614;2023-07-13T00:32:22;95624.78;;;20.23;55.90
72395;BME280;60384;48.152;11.614;2023-07-13T00:35:25;95619.72;;;20.22;55.95
72395;BME280;60384;48.152;11.614;2023-07-13T00:38:27;95630.19;;;20.20;55.96
72395;BME280;60384;48.152;11.614;2023-07-13T00:41:28;95629.00;;;20.17;55.93
72395;BME280;60384;48.152;11.614;2023-07-13T00:44:30;95620.88;;;20.17;55.93
72395;BME280;60384;48.152;11.614;2023-07-13T00:47:33;95623.56;;;20.17;56.02
72395;BME280;60384;48.152;11.614;2023-07-13T00:50:35;95624.72;;;20.16;56.10
72395;BME280;60384;48.152;11.614;2023-07-13T00:53:36;95622.41;;;20.15;56.18
72395;BME280;60384;48.152;11.614;2023-07-13T00:56:38;95616.59;;;20.16;56.11
72395;BME280;60384;48.152;11.614;2023-07-13T00:59:41;95624.72;;;20.16;56.16
72395;BME280;60384;48.152;11.614;2023-07-13T01:02:45;95634.41;;;20.14;56.21
72395;BME280;60384;48.152;11.614;2023-07-13T01:05:47;95623.16;;;20.08;56.33
72395;BME280;60384;48.152;11.614;2023-07-13T01:08:50;95601.44;;;20.08;56.17
72395;BME280;60384;48.152;11.614;2023-07-13T01:11:51;95598.75;;;20.12;56.31
72395;BME280;60384;48.152;11.614;2023-07-13T01:14:56;95601.88;;;20.14;56.23
72395;BME280;60384;48.152;11.614;2023-07-13T01:17:59;95592.16;;;20.13;56.19
72395;BME280;60384;48.152;11.614;2023-07-13T01:21:03;95587.53;;;20.13;56.34
72395;BME280;60384;48.152;11.614;2023-07-13T01:24:06;95580.94;;;20.14;56.30
72395;BME280;60384;48.152;11.614;2023-07-13T01:27:08;95580.94;;;20.14;56.21
72395;BME280;60384;48.152;11.614;2023-07-13T01:30:10;95575.53;;;20.14;56.32
72395;BME280;60384;48.152;11.614;2023-07-13T01:33:12;95573.19;;;20.13;56.30
72395;BME280;60384;48.152;11.614;2023-07-13T01:36:15;95563.53;;;20.15;56.35
72395;BME280;60384;48.152;11.614;2023-07-13T01:39:16;95575.16;;;20.16;56.34
72395;BME280;60384;48.152;11.614;2023-07-13T01:42:18;95570.88;;;20.15;56.21
72395;BME280;60384;48.152;11.614;2023-07-13T01:45:22;95570.09;;;20.14;56.39
72395;BME280;60384;48.152;11.614;2023-07-13T01:48:23;95570.88;;;20.15;56.45
72395;BME280;60384;48.152;11.614;2023-07-13T01:51:26;95586.75;;;20.13;56.59
72395;BME280;60384;48.152;11.614;2023-07-13T01:54:28;95601.06;;;20.10;56.56
72395;BME280;60384;48.152;11.614;2023-07-13T01:57:30;95599.88;;;20.07;56.68
72395;BME280;60384;48.152;11.614;2023-07-13T02:00:31;95616.16;;;20.04;56.75
72395;BME280;60384;48.152;11.614;2023-07-13T02:03:36;95612.25;;;20.01;56.89
72395;BME280;60384;48.152;11.614;2023-07-13T02:06:39;95613.00;;;19.98;57.01
72395;BME280;60384;48.152;11.614;2023-07-13T02:09:40;95619.22;;;19.99;56.96
72395;BME280;60384;48.152;11.614;2023-07-13T02:12:42;95615.31;;;20.00;57.01
72395;BME280;60384;48.152;11.614;2023-07-13T02:15:44;95621.56;;;20.04;56.87
72395;BME280;60384;48.152;11.614;2023-07-13T02:18:45;95601.81;;;20.07;56.59
72395;BME280;60384;48.152;11.614;2023-07-13T02:21:48;95618.88;;;20.11;56.79
72395;BME280;60384;48.152;11.614;2023-07-13T02:24:51;95614.25;;;20.11;56.82
72395;BME280;60384;48.152;11.614;2023-07-13T02:27:52;95615.03;;;20.12;56.78
72395;BME280;60384;48.152;11.614;2023-07-13T02:30:54;95618.13;;;20.14;56.79
72395;BME280;60384;48.152;11.614;2023-07-13T02:33:56;95620.84;;;20.14;56.73
72395;BME280;60384;48.152;11.614;2023-07-13T02:36:59;95620.44;;;20.12;56.90
72395;BME280;60384;48.152;11.614;2023-07-13T02:40:00;95630.91;;;20.10;57.06
72395;BME280;60384;48.152;11.614;2023-07-13T02:43:04;95646.41;;;20.09;56.80
72395;BME280;60384;48.152;11.614;2023-07-13T02:46:05;95653.72;;;20.05;57.02
72395;BME280;60384;48.152;11.614;2023-07-13T02:49:09;95656.41;;;19.98;57.31
72395;BME280;60384;48.152;11.614;2023-07-13T02:52:12;95667.13;;;19.80;57.76
72395;BME280;60384;48.152;11.614;2023-07-13T02:55:13;95672.81;;;19.68;58.36
72395;BME280;60384;48.152;11.614;2023-07-13T02:58:15;95666.53;;;19.57;58.47
72395;BME280;60384;48.152;11.614;2023-07-13T03:01:17;95663.72;;;19.47;58.51
72395;BME280;60384;48.152;11.614;2023-07-13T03:04:19;95667.47;;;19.35;60.08
72395;BME280;60384;48.152;11.614;2023-07-13T03:07:23;95668.50;;;19.23;61.89
72395;BME280;60384;48.152;11.614;2023-07-13T03:10:26;95668.78;;;19.15;63.56
72395;BME280;60384;48.152;11.614;2023-07-13T03:13:28;95676.78;;;19.04;64.76
72395;BME280;60384;48.152;11.614;2023-07-13T03:16:30;95677.50;;;18.97;65.48
72395;BME280;60384;48.152;11.614;2023-07-13T03:19:33;95669.34;;;18.94;66.09
72395;BME280;60384;48.152;11.614;2023-07-13T03:22:38;95672.78;;;18.91;66.66
72395;BME280;60384;48.152;11.614;2023-07-13T03:25:40;95691.34;;;18.89;66.69
72395;BME280;60384;48.152;11.614;2023-07-13T03:28:41;95683.53;;;18.84;67.20
72395;BME280;60384;48.152;11.614;2023-07-13T03:31:47;95683.09;;;18.78;67.59
72395;BME280;60384;48.152;11.614;2023-07-13T03:34:49;95684.56;;;18.72;67.96
72395;BME280;60384;48.152;11.614;2023-07-13T03:37:52;95680.28;;;18.71;67.76
72395;BME280;60384;48.152;11.614;2023-07-13T03:40:54;95693.41;;;18.69;68.55
72395;BME280;60384;48.152;11.614;2023-07-13T03:43:56;95689.50;;;18.67;68.21
72395;BME280;60384;48.152;11.614;2023-07-13T03:47:00;95688.75;;;18.70;68.40
72395;BME280;60384;48.152;11.614;2023-07-13T03:50:03;95696.53;;;18.71;68.49
72395;BME280;60384;48.152;11.614;2023-07-13T03:53:06;95692.31;;;18.74;68.31
72395;BME280;60384;48.152;11.614;2023-07-13T03:56:08;95699.69;;;18.77;68.45
72395;BME280;60384;48.152;11.614;2023-07-13T03:59:10;95692.72;;;18.76;68.75
72395;BME280;60384;48.152;11.614;2023-07-13T04:02:12;95691.16;;;18.75;68.94
72395;BME280;60384;48.152;11.614;2023-07-13T04:05:14;95694.97;;;18.70;68.81
72395;BME280;60384;48.152;11.614;2023-07-13T04:08:17;95695.31;;;18.69;69.01
72395;BME280;60384;48.152;11.614;2023-07-13T04:11:19;95698.81;;;18.69;69.11
72395;BME280;60384;48.152;11.614;2023-07-13T04:14:20;95708.50;;;18.70;69.50
72395;BME280;60384;48.152;11.614;2023-07-13T04:17:22;95710.38;;;18.66;69.55
72395;BME280;60384;48.152;11.614;2023-07-13T04:20:24;95703.38;;;18.62;69.94
72395;BME280;60384;48.152;11.614;2023-07-13T04:23:27;95710.63;;;18.57;69.99
72395;BME280;60384;48.152;11.614;2023-07-13T04:26:29;95719.94;;;18.56;69.71
72395;BME280;60384;48.152;11.614;2023-07-13T04:29:30;95714.41;;;18.53;70.04
72395;BME280;60384;48.152;11.614;2023-07-13T04:32:32;95713.63;;;18.52;70.00
72395;BME280;60384;48.152;11.614;2023-07-13T04:35:33;95720.69;;;18.57;69.94
72395;BME280;60384;48.152;11.614;2023-07-13T04:38:36;95725.72;;;18.58;69.69
72395;BME280;60384;48.152;11.614;2023-07-13T04:41:38;95724.16;;;18.57;69.98
72395;BME280;60384;48.152;11.614;2023-07-13T04:44:39;95727.31;;;18.60;69.86
72395;BME280;60384;48.152;11.614;2023-07-13T04:47:41;95727.34;;;18.63;69.54
72395;BME280;60384;48.152;11.614;2023-07-13T04:50:43;95724.28;;;18.65;69.69
72395;BME280;60384;48.152;11.614;2023-07-13T04:53:46;95728.53;;;18.66;69.48
72395;BME280;60384;48.152;11.614;2023-07-13T04:56:47;95724.69;;;18.67;69.20
72395;BME280;60384;48.152;11.614;2023-07-13T04:59:49;95728.56;;;18.69;69.42
72395;BME280;60384;48.152;11.614;2023-07-13T05:02:51;95730.94;;;18.71;68.79
72395;BME280;60384;48.152;11.614;2023-07-13T05:05:55;95740.53;;;18.68;68.48
72395;BME280;60384;48.152;11.614;2023-07-13T05:08:58;95747.13;;;18.67;68.74
72395;BME280;60384;48.152;11.614;2023-07-13T05:12:00;95745.19;;;18.68;68.43
72395;BME280;60384;48.152;11.614;2023-07-13T05:15:02;95747.94;;;18.71;67.91
72395;BME280;60384;48.152;11.614;2023-07-13T05:18:03;95750.66;;;18.71;68.09
72395;BME280;60384;48.152;11.614;2023-07-13T05:21:06;95746.38;;;18.70;67.71
72395;BME280;60384;48.152;11.614;2023-07-13T05:24:09;95747.59;;;18.73;67.69
72395;BME280;60384;48.152;11.614;2023-07-13T05:27:12;95747.97;;;18.75;67.55
72395;BME280;60384;48.152;11.614;2023-07-13T05:30:13;95746.06;;;18.75;67.19
72395;BME280;60384;48.152;11.614;2023-07-13T05:33:15;95746.81;;;18.72;67.33
72395;BME280;60384;48.152;11.614;2023-07-13T05:36:17;95746.03;;;18.72;66.94
72395;BME280;60384;48.152;11.614;2023-07-13T05:39:20;95754.50;;;18.70;67.20
72395;BME280;60384;48.152;11.614;2023-07-13T05:42:22;95753.72;;;18.70;67.18
72395;BME280;60384;48.152;11.614;2023-07-13T05:45:23;95751.78;;;18.70;66.88
72395;BME280;60384;48.152;11.614;2023-07-13T05:48:26;95752.22;;;18.72;66.67
72395;BME280;60384;48.152;11.614;2023-07-13T05:51:27;95749.16;;;18.74;66.57
72395;BME280;60384;48.152;11.614;2023-07-13T05:54:30;95752.25;;;18.76;66.59
72395;BME280;60384;48.152;11.614;2023-07-13T05:57:32;95751.94;;;18.81;66.40
72395;BME280;60384;48.152;11.614;2023-07-13T06:00:34;95753.91;;;18.84;66.40
72395;BME280;60384;48.152;11.614;2023-07-13T06:03:35;95758.22;;;18.88;66.39
72395;BME280;60384;48.152;11.614;2023-07-13T06:06:38;95753.63;;;18.92;66.37
72395;BME280;60384;48.152;11.614;2023-07-13T06:09:41;95764.88;;;18.94;66.25
72395;BME280;60384;48.152;11.614;2023-07-13T06:12:42;95766.44;;;18.95;66.07
72395;BME280;60384;48.152;11.614;2023-07-13T06:15:47;95762.59;;;18.96;66.14
72395;BME280;60384;48.152;11.614;2023-07-13T06:18:51;95768.00;;;18.96;66.19
72395;BME280;60384;48.152;11.614;2023-07-13T06:21:53;95778.84;;;18.96;66.24
72395;BME280;60384;48.152;11.614;2023-07-13T06:24:56;95778.88;;;19.00;65.86
72395;BME280;60384;48.152;11.614;2023-07-13T06:27:57;95771.94;;;19.03;66.02
72395;BME280;60384;48.152;11.614;2023-07-13T06:30:59;95786.31;;;19.07;65.82
72395;BME280;60384;48.152;11.614;2023-07-13T06:34:00;95783.28;;;19.12;65.83
72395;BME280;60384;48.152;11.614;2023-07-13T06:37:02;95785.63;;;19.13;65.74
72395;BME280;60384;48.152;11.614;2023-07-13T06:40:06;95793.44;;;19.18;65.60
72395;BME280;60384;48.152;11.614;2023-07-13T06:43:08;95805.09;;;19.22;65.80
72395;BME280;60384;48.152;11.614;2023-07-13T06:46:10;95803.16;;;19.23;65.83
72395;BME280;60384;48.152;11.614;2023-07-13T06:49:11;95807.75;;;19.19;65.95
72395;BME280;60384;48.152;11.614;2023-07-13T06:52:13;95811.94;;;19.13;65.83
72395;BME280;60384;48.152;11.614;2023-07-13T06:55:16;95825.38;;;19.06;66.21
72395;BME280;60384;48.152;11.614;2023-07-13T06:58:18;95813.34;;;19.03;66.40
72395;BME280;60384;48.152;11.614;2023-07-13T07:01:19;95813.72;;;19.02;66.24
72395;BME280;60384;48.152;11.614;2023-07-13T07:04:21;95814.13;;;19.04;66.48
72395;BME280;60384;48.152;11.614;2023-07-13T07:07:23;95819.53;;;19.04;66.71
72395;BME280;60384;48.152;11.614;2023-07-13T07:10:26;95823.09;;;19.08;66.29
72395;BME280;60384;48.152;11.614;2023-07-13T07:13:28;95819.97;;;19.06;66.54
72395;BME280;60384;48.152;11.614;2023-07-13T07:16:30;95823.09;;;19.08;66.62
72395;BME280;60384;48.152;11.614;2023-07-13T07:19:32;95828.53;;;19.11;66.81
72395;BME280;60384;48.152;11.614;2023-07-13T07:22:34;95828.97;;;19.13;66.48
72395;BME280;60384;48.152;11.614;2023-07-13T07:25:37;95821.59;;;19.14;66.60
72395;BME280;60384;48.152;11.614;2023-07-13T07:28:42;95820.84;;;19.13;66.66
72395;BME280;60384;48.152;11.614;2023-07-13T07:31:43;95817.34;;;19.13;66.66
72395;BME280;60384;48.152;11.614;2023-07-13T07:34:45;95832.44;;;19.14;66.87
72395;BME280;60384;48.152;11.614;2023-07-13T07:37:46;95830.94;;;19.16;66.79
72395;BME280;60384;48.152;11.614;2023-07-13T07:40:49;95829.00;;;19.17;66.57
72395;BME280;60384;48.152;11.614;2023-07-13T07:43:51;95836.38;;;19.20;66.86
72395;BME280;60384;48.152;11.614;2023-07-13T07:46:53;95837.59;;;19.22;66.65
72395;BME280;60384;48.152;11.614;2023-07-13T07:49:54;95851.50;;;19.21;66.80
72395;BME280;60384;48.152;11.614;2023-07-13T07:52:56;95857.28;;;19.19;66.87
72395;BME280;60384;48.152;11.614;2023-07-13T07:55:59;95856.50;;;19.19;66.90
72395;BME280;60384;48.152;11.614;2023-07-13T07:59:00;95859.94;;;19.16;66.85
72395;BME280;60384;48.152;11.614;2023-07-13T08:02:02;95854.88;;;19.14;66.89
72395;BME280;60384;48.152;11.614;2023-07-13T08:05:04;95857.19;;;19.12;67.00
72395;BME280;60384;48.152;11.614;2023-07-13T08:08:05;95873.81;;;19.11;66.79
72395;BME280;60384;48.152;11.614;2023-07-13T08:11:08;95881.13;;;19.10;66.99
72395;BME280;60384;48.152;11.614;2023-07-13T08:14:11;95881.94;;;19.11;66.91
72395;BME280;60384;48.152;11.614;2023-07-13T08:17:12;95882.28;;;19.09;66.69
72395;BME280;60384;48.152;11.614;2023-07-13T08:20:14;95880.34;;;19.10;66.40
72395;BME280;60384;48.152;11.614;2023-07-13T08:23:15;95874.94;;;19.10;66.74
72395;BME280;60384;48.152;11.614;2023-07-13T08:26:19;95888.75;;;19.01;66.55
72395;BME280;60384;48.152;11.614;2023-07-13T08:29:20;95880.94;;;18.96;66.73
72395;BME280;60384;48.152;11.614;2023-07-13T08:32:22;95882.09;;;18.95;66.88
72395;BME280;60384;48.152;11.614;2023-07-13T08:35:24;95886.28;;;18.92;66.82
72395;BME280;60384;48.152;11.614;2023-07-13T08:38:26;95890.09;;;18.88;66.63
72395;BME280;60384;48.152;11.614;2023-07-13T08:41:29;95894.31;;;18.85;66.64
72395;BME280;60384;48.152;11.614;2023-07-13T08:44:34;95897.00;;;18.85;66.65
72395;BME280;60384;48.152;11.614;2023-07-13T08:47:40;95901.66;;;18.85;66.81
72395;BME280;60384;48.152;11.614;2023-07-13T08:50:46;95905.56;;;18.87;66.46
72395;BME280;60384;48.152;11.614;2023-07-13T08:53:50;95906.38;;;18.91;66.64
72395;BME280;60384;48.152;11.614;2023-07-13T08:56:55;95909.16;;;18.95;66.23
72395;BME280;60384;48.152;11.614;2023-07-13T08:59:57;95905.31;;;18.96;66.38
72395;BME280;60384;48.152;11.614;2023-07-13T09:02:59;95906.94;;;19.01;66.47
72395;BME280;60384;48.152;11.614;2023-07-13T09:06:03;95912.75;;;19.03;66.35
72395;BME280;60384;48.152;11.614;2023-07-13T09:09:06;95909.31;;;19.06;66.40
72395;BME280;60384;48.152;11.614;2023-07-13T09:12:14;95905.41;;;19.03;66.43
72395;BME280;60384;48.152;11.614;2023-07-13T09:15:22;95906.97;;;19.04;66.44
72395;BME280;60384;48.152;11.614;2023-07-13T09:18:27;95906.63;;;19.06;66.55
72395;BME280;60384;48.152;11.614;2023-07-13T09:21:30;95904.72;;;19.10;66.24
72395;BME280;60384;48.152;11.614;2023-07-13T09:24:36;95902.84;;;19.14;66.20
72395;BME280;60384;48.152;11.614;2023-07-13T09:27:41;95901.78;;;19.18;66.14
72395;BME280;60384;48.152;11.614;2023-07-13T09:30:45;95895.25;;;19.23;66.08
72395;BME280;60384;48.152;11.614;2023-07-13T09:33:48;95895.34;;;19.30;65.97
72395;BME280;60384;48.152;11.614;2023-07-13T09:36:50;95892.69;;;19.33;65.93
72395;BME280;60384;48.152;11.614;2023-07-13T09:39:52;95905.13;;;19.38;65.58
72395;BME280;60384;48.152;11.614;2023-07-13T09:42:55;95907.84;;;19.38;65.78
72395;BME280;60384;48.152;11.614;2023-07-13T09:45:58;95909.41;;;19.39;65.54
72395;BME280;60384;48.152;11.614;2023-07-13T09:49:00;95912.56;;;19.45;65.63
72395;BME280;60384;48.152;11.614;2023-07-13T09:52:02;95905.38;;;19.56;65.37
72395;BME280;60384;48.152;11.614;2023-07-13T09:55:11;95914.06;;;19.68;65.30
72395;BME280;60384;48.152;11.614;2023-07-13T09:58:30;95914.56;;;19.77;65.16
72395;BME280;60384;48.152;11.614;2023-07-13T10:01:33;95923.94;;;19.84;65.10
72395;BME280;60384;48.152;11.614;2023-07-13T10:04:35;95907.72;;;19.87;64.89
72395;BME280;60384;48.152;11.614;2023-07-13T10:07:38;95910.47;;;19.91;64.92
72395;BME280;60384;48.152;11.614;2023-07-13T10:10:39;95905.50;;;19.96;64.75
72395;BME280;60384;48.152;11.614;2023-07-13T10:13:43;95909.44;;;20.02;64.31
72395;BME280;60384;48.152;11.614;2023-07-13T10:16:46;95918.81;;;20.08;64.58
72395;BME280;60384;48.152;11.614;2023-07-13T10:19:49;95929.00;;;20.22;64.37
72395;BME280;60384;48.152;11.614;2023-07-13T10:22:52;95925.72;;;20.39;64.23
72395;BME280;60384;48.152;11.614;2023-07-13T10:25:56;95924.00;;;20.61;64.09
72395;BME280;60384;48.152;11.614;2023-07-13T10:29:01;95919.47;;;20.76;63.93
72395;BME280;60384;48.152;11.614;2023-07-13T10:32:04;95918.03;;;20.89;64.10
72395;BME280;60384;48.152;11.614;2023-07-13T10:35:10;95919.25;;;20.98;64.15
72395;BME280;60384;48.152;11.614;2023-07-13T10:38:13;95921.19;;;20.98;63.48
72395;BME280;60384;48.152;11.614;2023-07-13T10:41:17;95929.38;;;21.01;63.58
72395;BME280;60384;48.152;11.614;2023-07-13T10:44:23;95928.63;;;21.04;63.34
72395;BME280;60384;48.152;11.614;2023-07-13T10:47:28;95923.59;;;21.07;63.45
72395;BME280;60384;48.152;11.614;2023-07-13T10:50:30;95923.25;;;21.12;63.48
72395;BME280;60384;48.152;11.614;2023-07-13T10:53:33;95919.44;;;21.20;63.64
72395;BME280;60384;48.152;11.614;2023-07-13T10:56:35;95926.06;;;21.19;63.25
72395;BME280;60384;48.152;11.614;2023-07-13T10:59:38;95924.84;;;21.16;63.61
72395;BME280;60384;48.152;11.614;2023-07-13T11:02:41;95926.06;;;21.26;63.70
72395;BME280;60384;48.152;11.614;2023-07-13T11:05:43;95931.56;;;21.29;63.57
72395;BME280;60384;48.152;11.614;2023-07-13T11:08:51;95929.19;;;21.28;63.95
72395;BME280;60384;48.152;11.614;2023-07-13T11:11:55;95930.00;;;21.28;63.83
72395;BME280;60384;48.152;11.614;2023-07-13T11:15:03;95939.72;;;21.36;63.99
72395;BME280;60384;48.152;11.614;2023-07-13T11:18:11;95929.69;;;21.44;63.50
72395;BME280;60384;48.152;11.614;2023-07-13T11:21:20;95932.03;;;21.49;62.85
72395;BME280;60384;48.152;11.614;2023-07-13T11:24:22;95928.19;;;21.54;63.18
72395;BME280;60384;48.152;11.614;2023-07-13T11:27:38;95927.44;;;21.57;63.22
72395;BME280;60384;48.152;11.614;2023-07-13T11:30:42;95923.94;;;21.60;62.75
72395;BME280;60384;48.152;11.614;2023-07-13T11:33:56;95932.13;;;21.67;62.63
72395;BME280;60384;48.152;11.614;2023-07-13T11:36:58;95916.22;;;21.72;62.43
72395;BME280;60384;48.152;11.614;2023-07-13T11:40:00;95926.41;;;21.90;62.83
72395;BME280;60384;48.152;11.614;2023-07-13T11:43:02;95910.09;;;21.93;63.20
72395;BME280;60384;48.152;11.614;2023-07-13T11:46:17;95900.06;;;22.01;62.98
72395;BME280;60384;48.152;11.614;2023-07-13T11:49:22;95894.63;;;22.08;63.10
72395;BME280;60384;48.152;11.614;2023-07-13T11:52:26;95891.13;;;22.11;63.08
72395;BME280;60384;48.152;11.614;2023-07-13T11:55:30;95887.63;;;22.10;62.97
72395;BME280;60384;48.152;11.614;2023-07-13T11:58:32;95891.53;;;22.16;62.99
72395;BME280;60384;48.152;11.614;2023-07-13T12:01:36;95886.88;;;22.24;62.96
72395;BME280;60384;48.152;11.614;2023-07-13T12:04:43;95878.38;;;22.33;62.82
72395;BME280;60384;48.152;11.614;2023-07-13T12:07:46;95883.44;;;22.38;62.73
72395;BME280;60384;48.152;11.614;2023-07-13T12:10:48;95888.47;;;22.43;62.80
72395;BME280;60384;48.152;11.614;2023-07-13T12:13:57;95887.31;;;22.47;63.13
72395;BME280;60384;48.152;11.614;2023-07-13T12:17:00;95886.56;;;22.54;63.09
72395;BME280;60384;48.152;11.614;2023-07-13T12:20:03;95872.53;;;22.59;63.06
72395;BME280;60384;48.152;11.614;2023-07-13T12:23:14;95872.94;;;22.68;63.04
72395;BME280;60384;48.152;11.614;2023-07-13T12:26:22;95879.56;;;22.74;62.78
72395;BME280;60384;48.152;11.614;2023-07-13T12:29:23;95877.66;;;22.78;62.69
72395;BME280;60384;48.152;11.614;2023-07-13T12:32:26;95865.97;;;22.78;62.81
72395;BME280;60384;48.152;11.614;2023-07-13T12:35:30;95871.75;;;22.69;63.23
72395;BME280;60384;48.152;11.614;2023-07-13T12:38:35;95869.41;;;22.67;63.22
72395;BME280;60384;48.152;11.614;2023-07-13T12:41:37;95871.38;;;22.71;63.07
72395;BME280;60384;48.152;11.614;2023-07-13T12:44:40;95874.88;;;22.71;63.06
72395;BME280;60384;48.152;11.614;2023-07-13T12:47:44;95864.00;;;22.75;62.75
72395;BME280;60384;48.152;11.614;2023-07-13T12:50:49;95857.00;;;22.77;62.91
72395;BME280;60384;48.152;11.614;2023-07-13T12:53:55;95857.00;;;22.81;62.44
72395;BME280;60384;48.152;11.614;2023-07-13T12:56:59;95853.88;;;22.93;62.71
72395;BME280;60384;48.152;11.614;2023-07-13T13:00:03;95857.75;;;23.10;62.69
72395;BME280;60384;48.152;11.614;2023-07-13T13:03:07;95845.66;;;23.14;62.32
72395;BME280;60384;48.152;11.614;2023-07-13T13:06:20;95842.16;;;23.14;62.55
72395;BME280;60384;48.152;11.614;2023-07-13T13:09:23;95849.13;;;23.18;62.49
72395;BME280;60384;48.152;11.614;2023-07-13T13:12:25;95839.38;;;23.31;62.61
72395;BME280;60384;48.152;11.614;2023-07-13T13:15:27;95848.69;;;23.48;62.29
72395;BME280;60384;48.152;11.614;2023-07-13T13:18:30;95841.63;;;23.65;62.14
72395;BME280;60384;48.152;11.614;2023-07-13T13:21:31;95847.06;;;23.72;62.28
72395;BME280;60384;48.152;11.614;2023-07-13T13:24:33;95843.13;;;23.76;61.92
72395;BME280;60384;48.152;11.614;2023-07-13T13:27:35;95840.03;;;23.71;62.01
72395;BME280;60384;48.152;11.614;2023-07-13T13:30:37;95837.34;;;23.67;62.30
72395;BME280;60384;48.152;11.614;2023-07-13T13:33:40;95841.63;;;23.65;62.23
72395;BME280;60384;48.152;11.614;2023-07-13T13:36:43;95857.25;;;23.57;62.59
72395;BME280;60384;48.152;11.614;2023-07-13T13:39:45;95849.84;;;23.54;62.61
72395;BME280;60384;48.152;11.614;2023-07-13T13:42:47;95842.47;;;23.51;62.44
72395;BME280;60384;48.152;11.614;2023-07-13T13:45:48;95846.34;;;23.57;62.35
72395;BME280;60384;48.152;11.614;2023-07-13T13:48:54;95854.91;;;23.63;61.91
72395;BME280;60384;48.152;11.614;2023-07-13T13:51:56;95857.59;;;23.66;61.93
72395;BME280;60384;48.152;11.614;2023-07-13T13:54:59;95858.78;;;23.62;61.65
72395;BME280;60384;48.152;11.614;2023-07-13T13:58:00;95867.38;;;23.60;61.58
72395;BME280;60384;48.152;11.614;2023-07-13T14:01:02;95864.66;;;23.57;61.77
72395;BME280;60384;48.152;11.614;2023-07-13T14:04:09;95853.75;;;23.57;61.97
72395;BME280;60384;48.152;11.614;2023-07-13T14:07:15;95843.19;;;23.66;61.60
72395;BME280;60384;48.152;11.614;2023-07-13T14:10:18;95850.94;;;23.74;61.37
72395;BME280;60384;48.152;11.614;2023-07-13T14:13:21;95848.59;;;23.80;61.07
72395;BME280;60384;48.152;11.614;2023-07-13T14:16:25;95854.78;;;23.84;61.00
72395;BME280;60384;48.152;11.614;2023-07-13T14:19:29;95860.25;;;23.84;60.87
72395;BME280;60384;48.152;11.614;2023-07-13T14:22:30;95842.34;;;23.76;61.16
72395;BME280;60384;48.152;11.614;2023-07-13T14:25:32;95856.78;;;23.76;60.95
72395;BME280;60384;48.152;11.614;2023-07-13T14:28:34;95844.22;;;23.93;61.18
72395;BME280;60384;48.152;11.614;2023-07-13T14:31:35;95850.38;;;24.08;60.55
72395;BME280;60384;48.152;11.614;2023-07-13T14:34:38;95852.28;;;24.14;60.93
72395;BME280;60384;48.152;11.614;2023-07-13T14:37:40;95855.38;;;24.16;61.00
72395;BME280;60384;48.152;11.614;2023-07-13T14:40:42;95850.34;;;24.15;60.73
72395;BME280;60384;48.152;11.614;2023-07-13T14:43:44;95854.22;;;24.24;60.84
72395;BME280;60384;48.152;11.614;2023-07-13T14:46:45;95849.47;;;24.32;60.61
72395;BME280;60384;48.152;11.614;2023-07-13T14:49:49;95852.91;;;24.40;60.74
72395;BME280;60384;48.152;11.614;2023-07-13T14:52:50;95850.47;;;24.56;60.54
72395;BME280;60384;48.152;11.614;2023-07-13T14:55:52;95857.38;;;24.71;60.48
72395;BME280;60384;48.152;11.614;2023-07-13T14:58:53;95856.84;;;24.87;60.46
72395;BME280;60384;48.152;11.614;2023-07-13T15:01:55;95845.06;;;24.97;60.27
72395;BME280;60384;48.152;11.614;2023-07-13T15:04:58;95837.19;;;25.06;60.30
72395;BME280;60384;48.152;11.614;2023-07-13T15:08:00;95837.06;;;25.17;60.50
72395;BME280;60384;48.152;11.614;2023-07-13T15:11:02;95842.09;;;25.22;60.50
72395;BME280;60384;48.152;11.614;2023-07-13T15:14:05;95844.31;;;25.30;60.34
72395;BME280;60384;48.152;11.614;2023-07-13T15:17:08;95836.44;;;25.36;60.20
72395;BME280;60384;48.152;11.614;2023-07-13T15:20:25;95839.44;;;25.48;60.22
72395;BME280;60384;48.152;11.614;2023-07-13T15:23:27;95838.84;;;25.68;60.19
72395;BME280;60384;48.152;11.614;2023-07-13T15:26:29;95840.28;;;25.79;60.28
72395;BME280;60384;48.152;11.614;2023-07-13T15:29:31;95834.25;;;25.91;60.28
72395;BME280;60384;48.152;11.614;2023-07-13T15:32:33;95841.09;;;26.03;60.30
72395;BME280;60384;48.152;11.614;2023-07-13T15:35:36;95827.69;;;26.12;60.25
72395;BME280;60384;48.152;11.614;2023-07-13T15:38:38;95827.59;;;26.19;60.16
72395;BME280;60384;48.152;11.614;2023-07-13T15:41:40;95827.16;;;26.24;60.52
72395;BME280;60384;48.152;11.614;2023-07-13T15:44:42;95837.91;;;26.39;60.72
72395;BME280;60384;48.152;11.614;2023-07-13T15:47:44;95832.38;;;26.42;60.56
72395;BME280;60384;48.152;11.614;2023-07-13T15:50:47;95829.84;;;26.28;60.89
72395;BME280;60384;48.152;11.614;2023-07-13T15:53:50;95831.47;;;26.25;60.72
72395;BME280;60384;48.152;11.614;2023-07-13T15:56:52;95839.56;;;26.32;61.09